createdAt,value
2023-04-29T00:01:27.069Z,20.50
2023-04-29T00:03:54.319Z,20.48
2023-04-29T00:06:22.600Z,20.47
2023-04-29T00:08:50.091Z,20.46
2023-04-29T00:11:16.997Z,20.48
2023-04-29T00:13:44.869Z,20.45
2023-04-29T00:16:11.905Z,20.40
2023-04-29T00:18:38.969Z,20.37
2023-04-29T00:21:06.316Z,20.37
2023-04-29T00:23:34.206Z,20.41
2023-04-29T00:26:01.362Z,20.38
2023-04-29T00:28:28.510Z,20.35
2023-04-29T00:30:56.278Z,20.34
2023-04-29T00:33:23.674Z,20.35
2023-04-29T00:35:51.390Z,20.32
2023-04-29T00:38:18.558Z,20.35
2023-04-29T00:40:45.979Z,20.34
2023-04-29T00:43:13.591Z,20.35
2023-04-29T00:45:40.660Z,20.34
2023-04-29T00:48:08.088Z,20.36
2023-04-29T00:50:36.923Z,20.35
2023-04-29T00:53:04.515Z,20.33
2023-04-29T00:55:33.460Z,20.35
2023-04-29T00:58:02.860Z,20.32
2023-04-29T01:00:30.922Z,20.32
2023-04-29T01:02:59.875Z,20.32
2023-04-29T01:05:27.919Z,20.31
2023-04-29T01:08:13.226Z,20.33
2023-04-29T01:11:09.711Z,20.31
2023-04-29T01:14:00.893Z,20.31
2023-04-29T01:16:38.128Z,20.27
2023-04-29T01:19:45.689Z,20.27
2023-04-29T01:22:14.686Z,20.25
2023-04-29T01:24:41.931Z,20.26
2023-04-29T01:27:24.390Z,20.28
2023-04-29T01:30:21.504Z,20.27
2023-04-29T01:33:01.238Z,20.25
2023-04-29T01:35:41.471Z,20.25
2023-04-29T01:38:23.824Z,20.25
2023-04-29T01:41:01.903Z,20.25
2023-04-29T01:43:32.944Z,20.20
2023-04-29T01:46:09.264Z,20.19
2023-04-29T01:48:37.600Z,20.18
2023-04-29T01:51:06.650Z,20.18
2023-04-29T01:53:33.905Z,20.14
2023-04-29T01:56:01.017Z,20.12
2023-04-29T01:58:44.705Z,20.12
2023-04-29T02:01:20.817Z,20.09
2023-04-29T02:03:48.383Z,20.09
2023-04-29T02:06:16.545Z,20.11
2023-04-29T02:08:45.725Z,20.07
2023-04-29T02:11:12.664Z,20.08
2023-04-29T02:13:41.779Z,20.04
2023-04-29T02:16:11.275Z,20.07
2023-04-29T02:18:42.844Z,20.05
2023-04-29T02:21:10.093Z,20.05
2023-04-29T02:23:37.136Z,20.06
2023-04-29T02:26:07.745Z,20.05
2023-04-29T02:28:35.278Z,20.02
2023-04-29T02:31:03.911Z,19.95
2023-04-29T02:33:31.552Z,19.97
2023-04-29T02:35:59.847Z,19.97
2023-04-29T02:38:26.997Z,19.92
2023-04-29T02:40:54.008Z,19.89
2023-04-29T02:43:21.984Z,19.85
2023-04-29T02:45:49.065Z,19.85
2023-04-29T02:48:17.225Z,19.84
2023-04-29T02:50:44.247Z,19.73
2023-04-29T02:53:11.312Z,19.76
2023-04-29T02:55:38.476Z,19.76
2023-04-29T02:58:09.279Z,19.75
2023-04-29T03:00:36.293Z,19.73
2023-04-29T03:03:03.540Z,19.73
2023-04-29T03:05:30.736Z,19.71
2023-04-29T03:07:58.202Z,19.68
2023-04-29T03:10:25.594Z,19.72
2023-04-29T03:12:52.580Z,19.71
2023-04-29T03:15:20.367Z,19.67
2023-04-29T03:17:47.482Z,19.64
2023-04-29T03:20:14.603Z,19.62
2023-04-29T03:22:41.576Z,19.61
2023-04-29T03:25:10.687Z,19.59
2023-04-29T03:27:39.538Z,19.61
2023-04-29T03:30:07.954Z,19.58
2023-04-29T03:32:38.481Z,19.57
2023-04-29T03:35:06.625Z,19.55
2023-04-29T03:37:39.172Z,19.55
2023-04-29T03:40:20.125Z,19.50
2023-04-29T03:42:48.912Z,19.50
2023-04-29T03:45:16.185Z,19.51
2023-04-29T03:47:43.749Z,19.51
2023-04-29T03:50:12.023Z,19.50
2023-04-29T03:52:40.273Z,19.50
2023-04-29T03:55:14.366Z,19.48
2023-04-29T03:57:42.844Z,19.47
2023-04-29T04:00:11.456Z,19.47
2023-04-29T04:02:45.178Z,19.45
2023-04-29T04:05:13.318Z,19.46
2023-04-29T04:07:44.315Z,19.43
2023-04-29T04:10:34.175Z,19.41
2023-04-29T04:13:04.571Z,19.38
2023-04-29T04:15:32.244Z,19.40
2023-04-29T04:18:00.027Z,19.35
2023-04-29T04:20:27.150Z,19.36
2023-04-29T04:22:55.063Z,19.33
2023-04-29T04:25:25.710Z,19.36
2023-04-29T04:27:58.290Z,19.37
2023-04-29T04:30:41.897Z,19.38
2023-04-29T04:33:09.326Z,19.38
2023-04-29T04:35:37.630Z,19.39
2023-04-29T04:38:04.796Z,19.40
2023-04-29T04:40:31.889Z,19.37
2023-04-29T04:43:19.118Z,19.42
2023-04-29T04:45:49.333Z,19.43
2023-04-29T04:48:16.558Z,19.41
2023-04-29T04:50:48.745Z,19.38
2023-04-29T04:53:17.489Z,19.38
2023-04-29T04:55:55.080Z,19.35
2023-04-29T04:58:22.435Z,19.39
2023-04-29T05:00:49.438Z,19.43
2023-04-29T05:03:17.085Z,19.47
2023-04-29T05:05:44.057Z,19.51
2023-04-29T05:08:11.483Z,19.54
2023-04-29T05:10:44.617Z,19.56
2023-04-29T05:13:12.840Z,19.61
2023-04-29T05:15:40.473Z,19.64
2023-04-29T05:18:08.974Z,19.68
2023-04-29T05:20:36.058Z,19.69
2023-04-29T05:23:04.074Z,19.70
2023-04-29T05:25:36.754Z,19.73
2023-04-29T05:28:04.784Z,19.55
2023-04-29T05:30:34.587Z,19.41
2023-04-29T05:33:01.917Z,19.53
2023-04-29T05:35:29.044Z,19.45
2023-04-29T05:37:56.117Z,19.43
2023-04-29T05:40:32.328Z,19.32
2023-04-29T05:43:16.546Z,19.36
2023-04-29T05:45:47.091Z,19.36
2023-04-29T05:48:14.364Z,19.36
2023-04-29T05:50:41.699Z,19.28
2023-04-29T05:53:08.909Z,19.29
2023-04-29T05:55:37.859Z,19.13
2023-04-29T05:58:05.007Z,19.20
2023-04-29T06:00:32.061Z,19.34
2023-04-29T06:03:07.457Z,19.47
2023-04-29T06:05:36.166Z,19.69
2023-04-29T06:08:28.326Z,19.84
2023-04-29T06:11:05.437Z,19.70
2023-04-29T06:13:33.270Z,19.81
2023-04-29T06:16:00.399Z,20.01
2023-04-29T06:18:32.044Z,20.14
2023-04-29T06:20:59.588Z,20.43
2023-04-29T06:23:26.725Z,20.75
2023-04-29T06:25:54.271Z,20.97
2023-04-29T06:28:22.096Z,21.27
2023-04-29T06:30:49.152Z,21.48
2023-04-29T06:33:16.550Z,21.56
2023-04-29T06:35:43.923Z,21.89
2023-04-29T06:38:43.441Z,21.63
2023-04-29T06:41:29.502Z,21.57
2023-04-29T06:43:59.404Z,21.62
2023-04-29T06:46:45.361Z,21.30
2023-04-29T06:49:43.895Z,21.60
2023-04-29T06:52:10.852Z,21.52
2023-04-29T06:54:37.822Z,21.79
2023-04-29T06:57:04.740Z,21.61
2023-04-29T06:59:31.722Z,21.36
2023-04-29T07:01:58.766Z,21.48
2023-04-29T07:04:26.151Z,21.61
2023-04-29T07:06:54.100Z,22.01
2023-04-29T07:09:21.151Z,22.28
2023-04-29T07:11:48.125Z,22.02
2023-04-29T07:14:15.251Z,21.96
2023-04-29T07:16:42.206Z,22.00
2023-04-29T07:19:10.797Z,22.07
2023-04-29T07:21:37.754Z,21.93
2023-04-29T07:24:05.449Z,22.63
2023-04-29T07:26:32.685Z,22.81
2023-04-29T07:28:59.588Z,23.14
2023-04-29T07:31:27.228Z,23.67
2023-04-29T07:33:55.332Z,23.72
2023-04-29T07:36:22.479Z,23.65
2023-04-29T07:38:49.502Z,23.89
2023-04-29T07:41:16.964Z,25.07
2023-04-29T07:43:44.272Z,25.12
2023-04-29T07:46:12.003Z,25.26
2023-04-29T07:48:40.180Z,26.01
2023-04-29T07:51:07.256Z,26.78
2023-04-29T07:53:34.435Z,27.22
2023-04-29T07:56:06.393Z,27.16
2023-04-29T07:58:33.707Z,27.36
2023-04-29T08:01:12.104Z,27.93
2023-04-29T08:03:41.978Z,29.07
2023-04-29T08:06:10.530Z,28.78
2023-04-29T08:08:37.656Z,28.72
2023-04-29T08:11:05.230Z,29.22
2023-04-29T08:13:32.567Z,29.33
2023-04-29T08:16:01.229Z,30.08
2023-04-29T08:18:28.276Z,30.31
2023-04-29T08:20:55.216Z,31.34
2023-04-29T08:23:22.097Z,31.12
2023-04-29T08:25:51.971Z,31.04
2023-04-29T08:28:19.719Z,30.37
2023-04-29T08:30:46.848Z,30.24
2023-04-29T08:33:14.683Z,30.54
2023-04-29T08:35:42.187Z,30.69
2023-04-29T08:38:10.238Z,30.65
2023-04-29T08:40:42.678Z,31.56
2023-04-29T08:43:10.693Z,31.24
2023-04-29T08:45:39.803Z,31.92
2023-04-29T08:48:10.477Z,32.18
2023-04-29T08:50:40.252Z,31.99
2023-04-29T08:53:11.865Z,32.25
2023-04-29T08:55:43.879Z,30.80
2023-04-29T08:58:12.262Z,29.85
2023-04-29T09:00:40.949Z,29.87
2023-04-29T09:03:22.852Z,30.11
2023-04-29T09:05:54.982Z,29.58
2023-04-29T09:08:24.204Z,29.17
2023-04-29T09:10:55.214Z,29.57
2023-04-29T09:13:30.323Z,30.51
2023-04-29T09:15:57.770Z,30.98
2023-04-29T09:18:50.519Z,29.90
2023-04-29T09:21:25.458Z,29.17
2023-04-29T09:23:57.360Z,29.44
2023-04-29T09:26:25.240Z,29.28
2023-04-29T09:29:09.546Z,29.58
2023-04-29T09:31:38.207Z,28.88
2023-04-29T09:34:05.660Z,28.36
2023-04-29T09:36:37.882Z,28.33
2023-04-29T09:39:12.776Z,27.58
2023-04-29T09:41:40.689Z,27.03
2023-04-29T09:44:08.988Z,27.06
2023-04-29T09:46:36.950Z,27.66
2023-04-29T09:49:07.037Z,27.05
2023-04-29T09:51:52.137Z,26.78
2023-04-29T09:54:24.202Z,26.93
2023-04-29T09:56:53.488Z,26.63
2023-04-29T09:59:21.450Z,26.41
2023-04-29T10:01:53.213Z,25.43
2023-04-29T10:04:22.028Z,24.82
2023-04-29T10:06:51.731Z,25.35
2023-04-29T10:09:20.043Z,25.44
2023-04-29T10:11:49.596Z,25.22
2023-04-29T10:14:21.705Z,25.48
2023-04-29T10:17:10.064Z,25.27
2023-04-29T10:19:45.334Z,24.70
2023-04-29T10:22:17.309Z,24.23
2023-04-29T10:24:44.635Z,24.64
2023-04-29T10:27:13.278Z,24.59
2023-04-29T10:29:41.803Z,24.65
2023-04-29T10:32:10.926Z,24.26
2023-04-29T10:34:41.560Z,23.53
2023-04-29T10:37:10.540Z,23.74
2023-04-29T10:39:53.136Z,23.56
2023-04-29T10:42:44.578Z,23.28
2023-04-29T10:45:23.688Z,23.49
2023-04-29T10:48:09.215Z,23.12
2023-04-29T10:50:48.200Z,22.75
2023-04-29T10:53:16.974Z,22.27
2023-04-29T10:55:48.995Z,22.83
2023-04-29T10:58:37.771Z,22.36
2023-04-29T11:01:05.702Z,22.76
2023-04-29T11:03:55.052Z,22.72
2023-04-29T11:06:42.864Z,23.14
2023-04-29T11:09:31.389Z,23.23
2023-04-29T11:12:09.680Z,22.99
2023-04-29T11:14:40.538Z,22.40
2023-04-29T11:17:13.681Z,22.32
2023-04-29T11:19:46.482Z,22.47
2023-04-29T11:22:18.282Z,22.55
2023-04-29T11:25:02.578Z,22.74
2023-04-29T11:27:34.799Z,22.93
2023-04-29T11:30:05.233Z,22.37
2023-04-29T11:32:35.034Z,22.23
2023-04-29T11:35:12.472Z,22.10
2023-04-29T11:37:40.948Z,21.86
2023-04-29T11:40:09.383Z,21.86
2023-04-29T11:42:40.908Z,21.85
2023-04-29T11:45:08.358Z,22.18
2023-04-29T11:47:35.404Z,22.43
2023-04-29T11:50:10.698Z,22.47
2023-04-29T11:52:39.479Z,22.49
2023-04-29T11:55:09.445Z,22.23
2023-04-29T11:57:36.854Z,22.37
2023-04-29T12:00:06.165Z,22.35
2023-04-29T12:02:35.709Z,22.44
2023-04-29T12:05:08.081Z,21.94
2023-04-29T12:07:37.252Z,21.80
2023-04-29T12:10:08.024Z,22.26
2023-04-29T12:12:36.495Z,22.32
2023-04-29T12:15:05.533Z,22.50
2023-04-29T12:17:32.932Z,22.44
2023-04-29T12:20:00.140Z,22.50
2023-04-29T12:22:33.588Z,22.68
2023-04-29T12:25:03.194Z,22.75
2023-04-29T12:27:31.792Z,22.61
2023-04-29T12:29:58.792Z,22.73
2023-04-29T12:32:25.920Z,22.48
2023-04-29T12:34:53.512Z,22.57
2023-04-29T12:37:23.782Z,22.47
2023-04-29T12:39:51.567Z,22.46
2023-04-29T12:42:18.581Z,21.98
2023-04-29T12:44:48.854Z,21.54
2023-04-29T12:47:17.049Z,21.54
2023-04-29T12:49:46.159Z,21.58
2023-04-29T12:52:13.699Z,21.79
2023-04-29T12:54:44.346Z,21.66
2023-04-29T12:57:12.312Z,21.53
2023-04-29T12:59:41.378Z,21.44
2023-04-29T13:02:09.241Z,21.57
2023-04-29T13:04:36.542Z,21.61
2023-04-29T13:07:04.563Z,21.48
2023-04-29T13:09:31.688Z,21.31
2023-04-29T13:11:59.697Z,21.47
2023-04-29T13:14:27.133Z,21.31
2023-04-29T13:16:54.317Z,21.63
2023-04-29T13:21:52.408Z,21.10
2023-04-29T13:24:20.379Z,21.13
2023-04-29T13:26:49.654Z,20.96
2023-04-29T13:29:18.728Z,21.09
2023-04-29T13:31:45.863Z,21.13
2023-04-29T13:34:12.950Z,20.94
2023-04-29T13:36:40.098Z,20.82
2023-04-29T13:39:07.406Z,21.01
2023-04-29T13:41:35.717Z,21.15
2023-04-29T13:44:04.919Z,20.88
2023-04-29T13:46:34.772Z,21.22
2023-04-29T13:49:31.932Z,21.42
2023-04-29T14:04:21.971Z,21.44
2023-04-29T14:06:49.009Z,21.07
2023-04-29T14:09:18.085Z,21.31
2023-04-29T14:11:44.967Z,21.29
2023-04-29T14:14:11.850Z,21.29
2023-04-29T14:16:39.105Z,21.39
2023-04-29T14:19:06.546Z,21.36
2023-04-29T14:21:33.907Z,21.42
2023-04-29T14:24:02.741Z,21.12
2023-04-29T14:26:31.176Z,21.31
2023-04-29T14:29:00.121Z,21.27
2023-04-29T14:31:29.490Z,21.56
2023-04-29T14:33:57.969Z,21.25
2023-04-29T14:36:26.876Z,21.50
2023-04-29T14:38:54.228Z,21.58
2023-04-29T14:41:23.900Z,21.31
2023-04-29T14:43:52.380Z,20.91
2023-04-29T14:46:20.431Z,20.71
2023-04-29T14:48:47.794Z,20.66
2023-04-29T14:51:17.299Z,21.04
2023-04-29T14:53:44.544Z,21.02
2023-04-29T14:56:11.678Z,21.15
2023-04-29T14:58:38.804Z,21.04
2023-04-29T15:01:06.578Z,21.06
2023-04-29T15:03:33.647Z,20.97
2023-04-29T15:06:04.366Z,20.94
2023-04-29T15:08:31.704Z,20.97
2023-04-29T15:10:59.056Z,21.18
2023-04-29T15:13:26.347Z,21.25
2023-04-29T15:15:53.390Z,21.35
2023-04-29T15:18:23.358Z,21.51
2023-04-29T15:20:53.890Z,21.12
2023-04-29T15:23:20.842Z,21.07
2023-04-29T15:25:48.013Z,21.19
2023-04-29T15:28:18.018Z,21.24
2023-04-29T15:30:45.442Z,21.31
2023-04-29T15:33:12.507Z,21.48
2023-04-29T15:35:39.541Z,21.44
2023-04-29T15:38:07.215Z,21.35
2023-04-29T15:40:34.233Z,21.38
2023-04-29T15:43:01.584Z,21.35
2023-04-29T15:45:28.642Z,21.55
2023-04-29T15:47:57.254Z,21.44
2023-04-29T15:50:24.223Z,21.36
2023-04-29T15:52:55.201Z,21.19
2023-04-29T15:55:22.628Z,21.37
2023-04-29T15:57:51.494Z,21.21
2023-04-29T16:00:19.189Z,21.02
2023-04-29T16:02:46.865Z,21.26
2023-04-29T16:05:13.984Z,21.17
2023-04-29T16:07:40.970Z,21.05
2023-04-29T16:10:08.194Z,20.99
2023-04-29T16:12:35.068Z,20.98
2023-04-29T16:15:02.174Z,20.93
2023-04-29T16:17:29.799Z,20.89
2023-04-29T16:19:56.900Z,20.90
2023-04-29T16:22:23.949Z,20.73
2023-04-29T16:24:51.306Z,20.55
2023-04-29T16:27:18.295Z,20.52
2023-04-29T16:29:52.894Z,20.58
2023-04-29T16:32:22.789Z,20.75
2023-04-29T16:34:49.734Z,20.89
2023-04-29T16:37:16.765Z,20.90
2023-04-29T16:39:43.887Z,20.84
2023-04-29T16:42:11.389Z,20.92
2023-04-29T16:44:38.337Z,20.72
2023-04-29T16:47:05.554Z,20.88
2023-04-29T16:49:32.498Z,20.93
2023-04-29T16:51:59.416Z,21.14
2023-04-29T16:54:27.783Z,21.26
2023-04-29T16:56:54.747Z,21.39
2023-04-29T16:59:21.783Z,21.42
2023-04-29T17:01:49.063Z,21.47
2023-04-29T17:04:16.290Z,21.33
2023-04-29T17:06:43.694Z,21.30
2023-04-29T17:09:11.575Z,21.48
2023-04-29T17:11:38.604Z,21.53
2023-04-29T17:14:05.760Z,21.66
2023-04-29T17:16:33.297Z,21.57
2023-04-29T17:19:00.351Z,21.71
2023-04-29T17:21:29.385Z,21.82
2023-04-29T17:23:56.800Z,21.88
2023-04-29T17:26:24.050Z,21.84
2023-04-29T17:28:51.026Z,21.86
2023-04-29T17:31:22.758Z,21.88
2023-04-29T17:33:55.643Z,21.85
2023-04-29T17:36:22.844Z,21.80
2023-04-29T17:38:49.946Z,21.77
2023-04-29T17:41:16.909Z,21.66
2023-04-29T17:43:43.780Z,21.58
2023-04-29T17:46:10.802Z,21.51
2023-04-29T17:48:37.998Z,21.53
2023-04-29T17:51:05.111Z,21.60
2023-04-29T17:53:33.359Z,21.59
2023-04-29T17:56:00.248Z,21.50
2023-04-29T17:58:29.065Z,21.45
2023-04-29T18:00:56.873Z,21.47
2023-04-29T18:03:27.405Z,21.55
2023-04-29T18:05:54.600Z,21.62
2023-04-29T18:08:23.577Z,21.67
2023-04-29T18:10:50.743Z,21.62
2023-04-29T18:13:17.968Z,21.65
2023-04-29T18:15:50.289Z,21.65
2023-04-29T18:18:18.423Z,21.71
2023-04-29T18:20:45.533Z,21.70
2023-04-29T18:23:15.204Z,21.75
2023-04-29T18:25:42.259Z,21.70
2023-04-29T18:28:24.158Z,21.75
2023-04-29T18:30:53.504Z,21.79
2023-04-29T18:33:20.544Z,21.82
2023-04-29T18:35:47.610Z,21.82
2023-04-29T18:38:17.562Z,21.85
2023-04-29T18:40:44.936Z,21.88
2023-04-29T18:43:15.368Z,21.81
2023-04-29T18:45:45.195Z,21.82
2023-04-29T18:48:13.115Z,21.78
2023-04-29T18:50:42.830Z,21.64
2023-04-29T18:53:09.915Z,21.62
2023-04-29T18:55:37.046Z,21.58
2023-04-29T18:58:04.482Z,21.60
2023-04-29T19:00:31.570Z,21.65
2023-04-29T19:02:58.974Z,21.56
2023-04-29T19:05:28.312Z,21.42
2023-04-29T19:07:55.483Z,21.40
2023-04-29T19:10:22.408Z,21.47
2023-04-29T19:12:49.452Z,21.55
2023-04-29T19:15:17.808Z,21.61
2023-04-29T19:17:44.843Z,21.66
2023-04-29T19:20:12.222Z,21.71
2023-04-29T19:22:39.336Z,21.76
2023-04-29T19:25:06.779Z,21.79
2023-04-29T19:27:33.718Z,21.80
2023-04-29T19:30:00.699Z,21.82
2023-04-29T19:32:30.181Z,21.81
2023-04-29T19:34:57.585Z,21.84
2023-04-29T19:37:25.026Z,21.88
2023-04-29T19:39:53.106Z,21.84
2023-04-29T19:42:20.363Z,21.87
2023-04-29T19:44:47.616Z,21.84
2023-04-29T19:47:14.733Z,21.78
2023-04-29T19:49:41.924Z,21.55
2023-04-29T19:52:08.974Z,21.58
2023-04-29T19:54:36.080Z,21.53
2023-04-29T19:57:03.224Z,21.53
2023-04-29T19:59:30.176Z,21.43
2023-04-29T20:01:57.301Z,21.43
2023-04-29T20:04:25.617Z,21.39
2023-04-29T20:06:52.573Z,21.39
2023-04-29T20:09:19.774Z,21.44
2023-04-29T20:11:47.117Z,21.38
2023-04-29T20:14:14.049Z,21.30
2023-04-29T20:16:41.289Z,21.36
2023-04-29T20:19:08.299Z,21.36
2023-04-29T20:21:35.686Z,21.38
2023-04-29T20:24:02.605Z,21.39
2023-04-29T20:26:30.165Z,21.41
2023-04-29T20:28:57.193Z,21.42
2023-04-29T20:31:24.210Z,21.45
2023-04-29T20:33:51.501Z,21.47
2023-04-29T20:36:18.833Z,21.49
2023-04-29T20:38:46.627Z,21.48
2023-04-29T20:41:13.662Z,21.52
2023-04-29T20:43:41.440Z,21.50
2023-04-29T20:46:08.390Z,21.52
2023-04-29T20:48:35.373Z,21.42
2023-04-29T20:51:02.268Z,21.46
2023-04-29T20:53:29.304Z,21.41
2023-04-29T20:55:56.302Z,21.38
2023-04-29T20:58:24.030Z,21.44
2023-04-29T21:00:51.571Z,21.45
2023-04-29T21:03:20.917Z,21.46
2023-04-29T21:05:47.984Z,21.45
2023-04-29T21:08:14.932Z,21.46
2023-04-29T21:10:41.893Z,21.44
2023-04-29T21:13:09.837Z,21.43
2023-04-29T21:15:37.632Z,21.45
2023-04-29T21:18:06.063Z,21.45
2023-04-29T21:20:33.307Z,21.47
2023-04-29T21:23:00.259Z,21.46
2023-04-29T21:25:27.653Z,21.43
2023-04-29T21:27:54.720Z,21.43
2023-04-29T21:30:21.831Z,21.42
2023-04-29T21:32:48.954Z,21.41
2023-04-29T21:35:16.854Z,21.34
2023-04-29T21:37:47.370Z,21.36
2023-04-29T21:40:14.738Z,21.35
2023-04-29T21:42:43.668Z,21.31
2023-04-29T21:45:15.656Z,21.30
2023-04-29T21:47:43.567Z,21.26
2023-04-29T21:50:11.421Z,21.26
2023-04-29T21:52:38.604Z,21.19
2023-04-29T21:55:06.443Z,21.24
2023-04-29T21:57:43.422Z,21.25
2023-04-29T22:00:27.872Z,21.27
2023-04-29T22:02:55.430Z,21.23
2023-04-29T22:05:22.482Z,21.18
2023-04-29T22:07:49.629Z,21.15
2023-04-29T22:10:16.685Z,21.14
2023-04-29T22:12:43.720Z,21.12
2023-04-29T22:15:24.545Z,21.07
2023-04-29T22:17:54.974Z,20.94
2023-04-29T22:20:22.223Z,20.89
2023-04-29T22:22:49.373Z,20.83
2023-04-29T22:25:16.293Z,20.75
2023-04-29T22:27:44.174Z,20.80
2023-04-29T22:30:11.593Z,20.77
2023-04-29T22:32:38.677Z,20.77
2023-04-29T22:35:06.286Z,20.83
2023-04-29T22:37:33.328Z,20.83
2023-04-29T22:40:00.405Z,20.82
2023-04-29T22:42:27.610Z,20.83
2023-04-29T22:44:54.628Z,20.76
2023-04-29T22:47:21.774Z,20.74
2023-04-29T22:49:48.658Z,20.77
2023-04-29T22:52:15.571Z,20.67
2023-04-29T22:54:42.716Z,20.58
2023-04-29T22:57:09.722Z,20.64
2023-04-29T22:59:36.712Z,20.69
2023-04-29T23:02:03.633Z,20.70
2023-04-29T23:04:32.422Z,20.69
2023-04-29T23:06:59.393Z,20.69
2023-04-29T23:09:26.678Z,20.64
2023-04-29T23:11:53.618Z,20.61
2023-04-29T23:14:21.778Z,20.61
2023-04-29T23:16:49.844Z,20.55
2023-04-29T23:19:16.805Z,20.55
2023-04-29T23:21:43.729Z,20.55
2023-04-29T23:24:11.025Z,20.60
2023-04-29T23:26:37.902Z,20.49
2023-04-29T23:29:04.853Z,20.54
2023-04-29T23:31:31.824Z,20.55
2023-04-29T23:33:59.696Z,20.64
2023-04-29T23:36:27.685Z,20.65
2023-04-29T23:38:54.715Z,20.69
2023-04-29T23:41:21.635Z,20.69
2023-04-29T23:43:48.649Z,20.72
2023-04-29T23:46:15.549Z,20.72
2023-04-29T23:48:42.446Z,20.73
2023-04-29T23:51:09.841Z,20.74
2023-04-29T23:53:38.678Z,20.75
2023-04-29T23:56:06.176Z,20.69
2023-04-29T23:58:33.183Z,20.71
